createdAt,value
2022-08-10T00:00:57.609Z,13.05
2022-08-10T00:06:01.025Z,13.06
2022-08-10T00:11:04.638Z,12.93
2022-08-10T00:16:18.971Z,12.82
2022-08-10T00:21:22.451Z,12.72
2022-08-10T00:27:52.603Z,12.71
2022-08-10T00:31:57.772Z,12.74
2022-08-10T00:37:04.897Z,12.70
2022-08-10T00:42:09.945Z,12.69
2022-08-10T00:47:35.871Z,12.58
2022-08-10T00:52:39.772Z,12.51
2022-08-10T00:57:42.862Z,12.51
2022-08-10T01:02:48.827Z,12.45
2022-08-10T01:08:03.937Z,12.52
2022-08-10T01:13:21.110Z,12.46
2022-08-10T01:18:37.987Z,12.42
2022-08-10T01:23:44.056Z,12.40
2022-08-10T01:29:18.652Z,12.45
2022-08-10T01:34:26.466Z,12.50
2022-08-10T01:39:33.578Z,12.57
2022-08-10T01:44:50.505Z,12.61
2022-08-10T01:50:01.474Z,12.61
2022-08-10T01:55:07.659Z,12.72
2022-08-10T02:00:13.684Z,12.68
2022-08-10T02:05:19.283Z,12.73
2022-08-10T02:10:24.072Z,12.71
2022-08-10T02:15:31.676Z,12.65
2022-08-10T02:20:44.345Z,12.76
2022-08-10T02:25:49.303Z,12.68
2022-08-10T02:30:55.041Z,12.60
2022-08-10T02:36:05.989Z,12.59
2022-08-10T02:42:18.794Z,12.54
2022-08-10T02:46:47.691Z,12.53
2022-08-10T02:52:07.780Z,12.50
2022-08-10T02:57:22.589Z,12.39
2022-08-10T03:02:31.343Z,12.29
2022-08-10T03:07:44.441Z,12.19
2022-08-10T03:12:52.690Z,12.02
2022-08-10T03:17:58.929Z,12.02
2022-08-10T03:23:06.321Z,11.92
2022-08-10T03:28:10.931Z,11.89
2022-08-10T03:33:23.557Z,11.73
2022-08-10T03:43:22.052Z,11.65
2022-08-10T03:48:47.092Z,11.52
2022-08-10T03:54:05.704Z,11.58
2022-08-10T03:59:13.611Z,11.58
2022-08-10T04:04:23.553Z,11.51
2022-08-10T04:09:53.639Z,11.60
2022-08-10T04:14:58.037Z,11.49
2022-08-10T04:20:02.879Z,11.54
2022-08-10T04:25:08.969Z,11.56
2022-08-10T04:30:12.666Z,11.57
2022-08-10T04:35:19.559Z,11.60
2022-08-10T04:40:29.709Z,11.66
2022-08-10T04:45:50.037Z,11.64
2022-08-10T04:50:54.938Z,11.67
2022-08-10T04:55:58.852Z,11.84
2022-08-10T05:01:03.346Z,11.95
2022-08-10T05:06:07.489Z,12.06
2022-08-10T05:11:10.931Z,12.18
2022-08-10T05:16:31.566Z,12.55
2022-08-10T05:21:59.814Z,12.67
2022-08-10T05:27:09.633Z,12.80
2022-08-10T05:32:14.430Z,12.97
2022-08-10T05:38:12.902Z,13.07
2022-08-10T05:42:42.685Z,13.17
2022-08-10T05:48:57.297Z,13.45
2022-08-10T05:53:23.155Z,13.52
2022-08-10T05:58:34.706Z,13.74
2022-08-10T06:03:48.934Z,13.92
2022-08-10T06:08:54.230Z,14.16
2022-08-10T06:14:18.419Z,14.32
2022-08-10T06:19:23.530Z,14.50
2022-08-10T06:24:30.234Z,14.80
2022-08-10T06:29:38.373Z,14.96
2022-08-10T06:34:48.425Z,15.46
2022-08-10T06:39:51.956Z,15.67
2022-08-10T06:45:12.965Z,15.94
2022-08-10T06:50:45.519Z,16.12
2022-08-10T06:56:05.224Z,16.51
2022-08-10T07:01:14.340Z,16.80
2022-08-10T07:06:20.624Z,16.90
2022-08-10T07:11:25.514Z,17.24
2022-08-10T07:16:30.976Z,17.35
2022-08-10T07:21:36.132Z,17.80
2022-08-10T07:26:46.810Z,17.75
2022-08-10T07:31:55.852Z,17.93
2022-08-10T07:37:04.196Z,18.40
2022-08-10T07:42:10.782Z,18.69
2022-08-10T07:47:18.185Z,18.80
2022-08-10T07:52:43.318Z,19.38
2022-08-10T07:57:52.173Z,19.60
2022-08-10T08:02:59.430Z,19.95
2022-08-10T08:08:04.415Z,20.22
2022-08-10T08:13:08.178Z,20.48
2022-08-10T08:18:13.066Z,21.33
2022-08-10T08:24:07.378Z,21.79
2022-08-10T08:28:43.486Z,22.53
2022-08-10T08:33:48.523Z,22.86
2022-08-10T08:38:52.532Z,22.84
2022-08-10T08:44:00.089Z,23.20
2022-08-10T08:50:05.198Z,23.43
2022-08-10T08:55:05.317Z,23.94
2022-08-10T09:00:44.526Z,24.70
2022-08-10T09:06:25.940Z,24.48
2022-08-10T09:11:46.534Z,24.85
2022-08-10T09:17:23.879Z,24.99
2022-08-10T09:22:43.322Z,24.93
2022-08-10T09:27:50.056Z,25.53
2022-08-10T09:36:27.001Z,25.25
2022-08-10T09:38:36.409Z,25.19
2022-08-10T09:43:51.850Z,25.88
2022-08-10T09:49:16.063Z,26.41
2022-08-10T09:54:40.156Z,25.27
2022-08-10T10:00:03.066Z,25.47
2022-08-10T10:05:19.593Z,26.48
2022-08-10T10:10:36.758Z,25.83
2022-08-10T10:16:33.525Z,27.07
2022-08-10T10:22:27.155Z,27.02
2022-08-10T10:27:52.037Z,26.23
2022-08-10T10:33:08.947Z,26.84
2022-08-10T10:38:18.373Z,27.19
2022-08-10T10:43:35.473Z,27.61
2022-08-10T10:49:02.061Z,27.20
2022-08-10T10:54:10.092Z,27.26
2022-08-10T11:00:04.963Z,27.27
2022-08-10T11:05:32.744Z,25.46
2022-08-10T11:10:47.186Z,26.89
2022-08-10T11:15:51.135Z,26.59
2022-08-10T11:21:07.610Z,25.82
2022-08-10T11:26:13.747Z,24.93
2022-08-10T11:31:24.929Z,24.70
2022-08-10T11:36:32.501Z,25.31
2022-08-10T11:42:09.714Z,26.07
2022-08-10T11:47:18.022Z,26.07
2022-08-10T11:52:35.372Z,25.78
2022-08-10T11:57:53.406Z,27.13
2022-08-10T12:03:06.446Z,27.57
2022-08-10T12:10:02.576Z,28.46
2022-08-10T12:14:17.952Z,27.71
2022-08-10T12:19:29.633Z,27.39
2022-08-10T12:24:57.781Z,26.91
2022-08-10T12:30:08.064Z,27.30
2022-08-10T12:35:26.462Z,26.93
2022-08-10T12:40:36.119Z,27.53
2022-08-10T12:46:13.231Z,27.64
2022-08-10T12:51:25.981Z,27.60
2022-08-10T12:56:40.049Z,27.94
2022-08-10T13:02:06.328Z,27.61
2022-08-10T13:08:26.110Z,27.60
2022-08-10T13:12:40.501Z,28.02
2022-08-10T13:17:49.805Z,27.67
2022-08-10T13:23:00.035Z,27.49
2022-08-10T13:28:36.542Z,27.53
2022-08-10T13:34:39.725Z,27.16
2022-08-10T13:39:00.728Z,27.30
2022-08-10T13:44:05.233Z,27.61
2022-08-10T13:49:11.918Z,27.02
2022-08-10T13:54:19.817Z,27.32
2022-08-10T13:59:26.261Z,27.23
2022-08-10T14:04:49.988Z,27.87
2022-08-10T14:09:54.573Z,27.53
2022-08-10T14:14:59.905Z,27.15
2022-08-10T14:20:13.382Z,26.79
2022-08-10T14:25:18.395Z,27.25
2022-08-10T14:30:30.849Z,26.82
2022-08-10T14:36:21.253Z,26.87
2022-08-10T14:41:04.717Z,26.80
2022-08-10T14:46:11.371Z,27.10
2022-08-10T14:51:26.954Z,27.03
2022-08-10T14:56:49.832Z,26.44
2022-08-10T15:02:40.373Z,26.88
2022-08-10T15:07:30.468Z,26.70
2022-08-10T15:12:39.723Z,26.27
2022-08-10T15:17:57.493Z,26.15
2022-08-10T15:23:06.776Z,26.83
2022-08-10T15:28:16.695Z,26.59
2022-08-10T15:34:02.396Z,25.89
2022-08-10T15:39:16.732Z,26.26
2022-08-10T15:44:38.257Z,26.23
2022-08-10T15:49:45.774Z,25.79
2022-08-10T15:54:58.717Z,25.08
2022-08-10T16:00:09.805Z,25.11
2022-08-10T16:06:00.948Z,25.04
2022-08-10T16:10:53.499Z,24.82
2022-08-10T16:16:03.752Z,24.86
2022-08-10T16:21:13.651Z,24.16
2022-08-10T16:26:25.053Z,24.17
2022-08-10T16:31:32.986Z,23.87
2022-08-10T16:36:45.469Z,23.60
2022-08-10T16:42:03.558Z,23.45
2022-08-10T16:47:11.416Z,23.43
2022-08-10T16:52:16.794Z,23.35
2022-08-10T16:57:22.416Z,23.26
2022-08-10T17:02:29.770Z,23.28
2022-08-10T17:07:34.622Z,23.13
2022-08-10T17:12:40.930Z,23.01
2022-08-10T17:17:52.128Z,22.94
2022-08-10T17:23:01.635Z,22.68
2022-08-10T17:28:09.234Z,22.66
2022-08-10T17:33:15.331Z,22.47
2022-08-10T17:38:30.888Z,22.13
2022-08-10T17:43:46.228Z,21.86
2022-08-10T17:49:01.700Z,21.67
2022-08-10T17:54:09.900Z,21.38
2022-08-10T17:59:17.467Z,21.15
2022-08-10T18:04:22.459Z,20.97
2022-08-10T18:09:35.688Z,20.63
2022-08-10T18:14:43.702Z,20.43
2022-08-10T18:19:52.032Z,20.14
2022-08-10T18:24:58.561Z,19.90
2022-08-10T18:30:08.668Z,19.58
2022-08-10T18:35:16.265Z,19.40
2022-08-10T18:40:20.771Z,19.04
2022-08-10T18:45:44.843Z,18.84
2022-08-10T18:50:51.781Z,18.65
2022-08-10T18:56:19.572Z,18.43
2022-08-10T19:01:48.053Z,18.24
2022-08-10T19:06:59.762Z,18.05
2022-08-10T19:18:21.919Z,17.89
2022-08-10T19:44:43.496Z,17.20
2022-08-10T19:51:23.831Z,17.28
2022-08-10T20:04:05.079Z,16.87
2022-08-10T20:09:45.746Z,16.96
2022-08-10T20:15:03.439Z,16.92
2022-08-10T20:20:19.483Z,16.84
2022-08-10T20:25:32.111Z,16.77
2022-08-10T20:30:42.759Z,16.62
2022-08-10T20:35:49.219Z,16.48
2022-08-10T20:41:03.827Z,16.42
2022-08-10T20:46:23.293Z,16.27
2022-08-10T20:51:59.403Z,16.23
2022-08-10T20:56:55.608Z,16.22
2022-08-10T21:02:41.728Z,16.04
2022-08-10T21:08:10.087Z,16.00
2022-08-10T21:13:50.976Z,15.79
2022-08-10T21:19:26.078Z,15.67
2022-08-10T21:24:42.442Z,15.54
2022-08-10T21:30:09.287Z,15.53
2022-08-10T21:35:37.646Z,15.44
2022-08-10T21:41:17.545Z,15.24
2022-08-10T21:47:02.946Z,15.26
2022-08-10T21:52:40.637Z,15.21
2022-08-10T21:58:03.233Z,15.07
2022-08-10T22:03:26.135Z,14.97
2022-08-10T22:09:04.797Z,14.83
2022-08-10T22:14:32.104Z,14.74
2022-08-10T22:20:03.005Z,14.73
2022-08-10T22:25:52.080Z,14.66
2022-08-10T22:37:17.817Z,14.52
2022-08-10T22:42:58.912Z,14.51
2022-08-10T22:48:29.868Z,14.41
2022-08-10T22:54:01.482Z,14.43
2022-08-10T22:59:08.004Z,14.37
2022-08-10T23:04:26.756Z,14.39
2022-08-10T23:09:42.151Z,14.27
2022-08-10T23:14:59.192Z,14.22
2022-08-10T23:20:13.215Z,14.18
2022-08-10T23:25:22.882Z,14.03
2022-08-10T23:30:38.720Z,13.87
2022-08-10T23:36:30.464Z,13.75
2022-08-10T23:41:26.061Z,13.70
2022-08-10T23:46:38.382Z,13.64
2022-08-10T23:51:55.171Z,13.57
2022-08-10T23:57:02.148Z,13.54
